Bonaparte, IA (52620)

12:28 AM CST am 20. Dezember 2014 (GMT -0600)
KIADONNE3 | Change Station
CLOSE
Current Station
Persönliche Wetterstationen
Location: Donnellson, IA
Höhe: 700 ft
Wetterstationen in der Umgebung

Höhe 700 ft 40.63 °N, 91.60 °W | Updated 5 seconds ago

Bedeckt
Bedeckt
30.7 °F
gefühlte 31 °F
N
2.9
Wind Wechselnd Wind aus Südost
Gusts 4.9 mph

Heute
Max. -- | schwach -- °F
--% Regenrisiko
Gestern
Max. -- | schwach -- °F
Precip. -- inch
7:27 AM 4:42 PM
Letztes Viertel, 4% visible
Druck 30.24 inch
Sichtweite 7.0 Meilen
Wolken Bedeckt 5000 ft
Windchill 31 °F
Taupunkt 26 °F
Feuchtigkeit 83%
Regen 0.00 inch
Schneehöhe Nicht verfügbar..
UV 0 von 12
Pollen .10 von 12
Luftqualität Nicht verfügbar..
Flu Activity Nicht verfügbar..
METAR KMPZ 200615Z AUTO 14004KT 7SM OVC050 M01/M03 A3024 RMK AO2 T10101035

More Conditions Fewer Conditions

Druck 30.24 inch
Sichtweite 7.0 Meilen
Wolken Bedeckt 5000 ft
Windchill 31 °F
Taupunkt 26 °F
Feuchtigkeit 83%
Regen 0.00 inch
Schneehöhe Nicht verfügbar..
UV 0 von 12
Pollen .10 von 12
Luftqualität Nicht verfügbar..
Flu Activity Nicht verfügbar..
METAR KMPZ 200615Z AUTO 14004KT 7SM OVC050 M01/M03 A3024 RMK AO2 T10101035

More Conditions Fewer Conditions

10-Day Weather Forecast

Almanac

Astronomie

Dec. 20, 2014 Aufgang Untergang
Genaue Zeit
Bürgerliche Dämmerung
Nautische Dämmerung
Astronomische Dämmerung
Mond
Länge des sichtbaren Lichts
Tageslänge
Tomorrow will be .
, % of the Moon is Illuminated

Heutige Rekorde

State Highs State Lows

Community

WunderPhotos

Upload Photos

1,779,144 Fotos hochgeladen!

WunderBlogs® & News

Nearby

Luftqualität

  Luftqualität LQ Index Schadstoff
Not available.

Schneehöhe

Station Depth Höhe

Erdbebenaktivität

Stadt Distance Mag. Time & Date
Minimum magnitude displayed is 2.5.

küstennahe Wassertemperaturen

Ort Temperatur

Wetterstationen in der Umgebung